Time;durP1;ratioP1;P1;durP2;ratioP2;P2;SDS_P1;SDS_P2;PMS_P1;PMS_P2;Temp;Humidity;BMP_temperature;BMP_pressure;BME280_temperature;BME280_humidity;BME280_pressure;Samples;Min_cycle;Max_cycle;Signal;HPM_P1;HPM_P2
2023/07/16 00:08:05;;;;;;;4.60;1.95;;;;;;;;;;21003390;28;20044;-67
2023/07/16 00:18:06;;;;;;;2.80;1.50;;;;;;;;;;21002055;28;20558;-67
2023/07/16 00:28:07;;;;;;;2.22;1.20;;;;;;;;;;21000532;28;20527;-66
2023/07/16 00:38:08;;;;;;;1.65;1.00;;;;;;;;;;20999171;28;20059;-67
2023/07/16 00:48:09;;;;;;;2.75;1.08;;;;;;;;;;20999774;28;20048;-67
2023/07/16 00:58:10;;;;;;;2.88;0.90;;;;;;;;;;20997852;28;20525;-66
2023/07/16 01:08:12;;;;;;;2.85;1.30;;;;;;;;;;20997488;28;20051;-66
2023/07/16 01:18:13;;;;;;;3.63;1.30;;;;;;;;;;20996663;28;20052;-67
2023/07/16 01:28:29;;;;;;;3.85;0.95;;;;;;;;;;20997691;28;20083;-67
2023/07/16 01:38:30;;;;;;;2.63;1.10;;;;;;;;;;20996703;28;20461;-67
2023/07/16 01:48:34;;;;;;;1.75;1.13;;;;;;;;;;20996993;28;20541;-66
2023/07/16 01:58:35;;;;;;;1.27;0.88;;;;;;;;;;20996482;28;20119;-67
2023/07/16 02:08:36;;;;;;;1.98;1.23;;;;;;;;;;20994865;28;20119;-67
2023/07/16 02:18:37;;;;;;;2.63;1.08;;;;;;;;;;20994250;28;20053;-67
2023/07/16 02:28:38;;;;;;;3.78;1.50;;;;;;;;;;20995444;28;20355;-66
2023/07/16 02:38:39;;;;;;;6.63;2.78;;;;;;;;;;20994409;28;20502;-67
2023/07/16 02:48:41;;;;;;;4.65;1.88;;;;;;;;;;20999433;28;20036;-69
2023/07/16 02:58:42;;;;;;;4.75;1.27;;;;;;;;;;21009159;28;20045;-67
2023/07/16 03:08:45;;;;;;;3.83;1.10;;;;;;;;;;21008157;28;20434;-66
2023/07/16 03:18:46;;;;;;;2.28;1.20;;;;;;;;;;21007336;28;20052;-66
2023/07/16 03:28:47;;;;;;;2.75;1.15;;;;;;;;;;21006590;28;20594;-67
2023/07/16 03:38:48;;;;;;;3.78;1.40;;;;;;;;;;21004391;28;20049;-67
2023/07/16 03:48:49;;;;;;;2.17;0.95;;;;;;;;;;21003812;28;20064;-66
2023/07/16 03:58:50;;;;;;;1.80;1.15;;;;;;;;;;21002913;28;20036;-66
2023/07/16 04:08:51;;;;;;;5.05;1.50;;;;;;;;;;21002104;28;20045;-66
2023/07/16 04:18:52;;;;;;;3.00;1.00;;;;;;;;;;21002526;28;20041;-66
2023/07/16 04:28:53;;;;;;;2.65;1.08;;;;;;;;;;21001807;28;20040;-67
2023/07/16 04:38:54;;;;;;;2.22;1.17;;;;;;;;;;21000534;28;20127;-67
2023/07/16 04:48:55;;;;;;;3.75;0.95;;;;;;;;;;21000285;28;20044;-66
2023/07/16 04:58:57;;;;;;;2.17;1.10;;;;;;;;;;20999559;28;20045;-67
2023/07/16 05:08:58;;;;;;;1.67;1.13;;;;;;;;;;20998555;28;20052;-67
2023/07/16 05:18:59;;;;;;;4.50;1.08;;;;;;;;;;20998256;28;20048;-67
2023/07/16 05:29:00;;;;;;;2.85;0.98;;;;;;;;;;20997939;28;20044;-66
2023/07/16 05:39:01;;;;;;;4.40;1.30;;;;;;;;;;20996650;28;20127;-66
2023/07/16 05:49:02;;;;;;;3.60;1.20;;;;;;;;;;20996912;28;20098;-66
2023/07/16 05:59:03;;;;;;;3.20;1.13;;;;;;;;;;20996562;28;20093;-67
2023/07/16 06:09:04;;;;;;;3.25;1.38;;;;;;;;;;20996235;28;20094;-67
2023/07/16 06:19:05;;;;;;;2.35;1.05;;;;;;;;;;20995834;28;20049;-66
2023/07/16 06:29:06;;;;;;;3.63;1.20;;;;;;;;;;21010515;28;20424;-67
2023/07/16 06:39:07;;;;;;;4.13;1.13;;;;;;;;;;21009596;28;20091;-67
2023/07/16 06:49:09;;;;;;;9.05;4.95;;;;;;;;;;21009548;28;20123;-67
2023/07/16 06:59:10;;;;;;;2.75;0.90;;;;;;;;;;21008665;28;20040;-68
2023/07/16 07:09:11;;;;;;;3.20;0.95;;;;;;;;;;21008249;28;20040;-67
2023/07/16 07:19:12;;;;;;;5.00;1.17;;;;;;;;;;21007198;28;20048;-68
2023/07/16 07:29:14;;;;;;;2.42;1.40;;;;;;;;;;21006345;28;20497;-68
2023/07/16 07:39:16;;;;;;;3.22;1.20;;;;;;;;;;21004630;28;20064;-68
2023/07/16 07:49:17;;;;;;;2.90;0.98;;;;;;;;;;21003598;28;20201;-68
2023/07/16 07:59:18;;;;;;;3.78;1.20;;;;;;;;;;21002176;28;20095;-67
2023/07/16 08:09:19;;;;;;;3.80;1.23;;;;;;;;;;21002216;28;20115;-68
2023/07/16 08:19:20;;;;;;;1.90;1.10;;;;;;;;;;21002351;28;20087;-68
2023/07/16 08:29:22;;;;;;;3.22;1.45;;;;;;;;;;21001235;28;20124;-68
2023/07/16 08:39:23;;;;;;;1.40;0.90;;;;;;;;;;21000335;28;20048;-68
2023/07/16 08:49:26;;;;;;;1.83;1.00;;;;;;;;;;20999082;28;20133;-68
2023/07/16 08:59:27;;;;;;;2.08;1.20;;;;;;;;;;20997752;28;20123;-70
2023/07/16 09:09:29;;;;;;;3.03;1.55;;;;;;;;;;20998750;28;20494;-70
2023/07/16 09:19:33;;;;;;;2.50;1.80;;;;;;;;;;20996843;28;20048;-71
2023/07/16 09:29:34;;;;;;;2.53;1.75;;;;;;;;;;20997740;28;20036;-70
2023/07/16 09:39:36;;;;;;;2.65;1.35;;;;;;;;;;20996395;28;20048;-73
2023/07/16 09:49:37;;;;;;;1.75;0.95;;;;;;;;;;20997406;28;20404;-71
2023/07/16 09:59:38;;;;;;;1.83;0.93;;;;;;;;;;21006486;28;20405;-70
2023/07/16 10:09:51;;;;;;;2.55;1.30;;;;;;;;;;21012519;28;20123;-71
2023/07/16 10:19:57;;;;;;;2.72;1.27;;;;;;;;;;21011735;28;20076;-71
2023/07/16 10:30:01;;;;;;;2.28;1.35;;;;;;;;;;21009723;28;20068;-70
2023/07/16 10:40:06;;;;;;;1.95;1.30;;;;;;;;;;21008690;28;20132;-71
2023/07/16 10:50:08;;;;;;;4.20;1.90;;;;;;;;;;21010657;28;20405;-70
2023/07/16 11:00:11;;;;;;;2.33;1.50;;;;;;;;;;21007334;28;20037;-71
2023/07/16 11:10:12;;;;;;;2.30;1.63;;;;;;;;;;21006057;28;20430;-70
2023/07/16 11:20:13;;;;;;;1.95;1.10;;;;;;;;;;21007073;28;20047;-70
2023/07/16 11:30:14;;;;;;;3.17;1.48;;;;;;;;;;21006105;28;20048;-69
2023/07/16 11:40:16;;;;;;;4.10;1.70;;;;;;;;;;21004949;28;20452;-70
2023/07/16 11:50:17;;;;;;;12.18;8.95;;;;;;;;;;21004816;28;20117;-71
2023/07/16 12:00:19;;;;;;;2.53;1.38;;;;;;;;;;21004090;28;20041;-69
2023/07/16 12:10:20;;;;;;;2.83;1.58;;;;;;;;;;21003209;28;20066;-70
2023/07/16 12:20:21;;;;;;;5.60;1.63;;;;;;;;;;21001546;28;20072;-70
2023/07/16 12:30:22;;;;;;;2.17;1.40;;;;;;;;;;21001879;28;20493;-69
2023/07/16 12:40:23;;;;;;;4.50;1.15;;;;;;;;;;21000514;28;20111;-70
2023/07/16 12:50:27;;;;;;;3.15;1.27;;;;;;;;;;20999953;28;20406;-71
2023/07/16 13:00:28;;;;;;;2.88;1.73;;;;;;;;;;20999602;28;20055;-71
2023/07/16 13:10:29;;;;;;;2.80;1.40;;;;;;;;;;20998966;28;20516;-71
2023/07/16 13:20:30;;;;;;;3.03;1.70;;;;;;;;;;20999413;28;20516;-70
2023/07/16 13:30:32;;;;;;;3.25;1.70;;;;;;;;;;20997116;28;20435;-69
2023/07/16 13:40:33;;;;;;;2.75;2.00;;;;;;;;;;20996213;28;20514;-70
2023/07/16 13:50:35;;;;;;;4.55;1.95;;;;;;;;;;20995338;28;20053;-70
2023/07/16 14:00:36;;;;;;;5.55;2.40;;;;;;;;;;20995091;28;20045;-70
2023/07/16 14:10:37;;;;;;;3.00;2.50;;;;;;;;;;20949008;28;20048;-70
2023/07/16 14:20:38;;;;;;;3.05;2.40;;;;;;;;;;20912654;28;20053;-70
2023/07/16 14:30:39;;;;;;;2.42;1.45;;;;;;;;;;20911798;28;20091;-70
2023/07/16 14:40:42;;;;;;;3.05;1.42;;;;;;;;;;20911113;28;20053;-69
2023/07/16 14:50:43;;;;;;;2.97;1.27;;;;;;;;;;20926987;28;20391;-70
2023/07/16 15:00:44;;;;;;;2.97;1.58;;;;;;;;;;20924444;28;20045;-70
2023/07/16 15:10:45;;;;;;;2.60;1.52;;;;;;;;;;20925124;28;20049;-70
2023/07/16 15:20:47;;;;;;;2.22;1.55;;;;;;;;;;20923795;28;20401;-71
2023/07/16 15:30:49;;;;;;;3.53;2.83;;;;;;;;;;20923377;28;20051;-69
2023/07/16 15:40:50;;;;;;;2.75;1.77;;;;;;;;;;20920614;28;20191;-70
2023/07/16 15:50:57;;;;;;;8.55;1.95;;;;;;;;;;20921722;28;20106;-71
2023/07/16 16:00:58;;;;;;;2.55;1.70;;;;;;;;;;20920326;28;20118;-69
2023/07/16 16:10:59;;;;;;;3.15;1.85;;;;;;;;;;20920141;28;20045;-70
2023/07/16 16:21:00;;;;;;;3.60;1.80;;;;;;;;;;20919620;28;20051;-70
2023/07/16 16:31:05;;;;;;;2.13;1.60;;;;;;;;;;20917641;28;20048;-70
2023/07/16 16:41:08;;;;;;;3.37;1.73;;;;;;;;;;20918066;28;20118;-72
2023/07/16 16:51:09;;;;;;;3.45;2.25;;;;;;;;;;20917462;28;20132;-70
2023/07/16 17:01:10;;;;;;;3.35;1.65;;;;;;;;;;20916004;28;20045;-70
2023/07/16 17:11:11;;;;;;;4.78;1.90;;;;;;;;;;20914107;28;20041;-70
2023/07/16 17:21:12;;;;;;;2.38;1.55;;;;;;;;;;20914968;28;20478;-70
2023/07/16 17:31:13;;;;;;;4.90;1.70;;;;;;;;;;20913870;28;20088;-69
2023/07/16 17:41:14;;;;;;;4.53;1.88;;;;;;;;;;20912631;28;20088;-69
2023/07/16 17:51:16;;;;;;;3.00;1.60;;;;;;;;;;20913749;28;20406;-70
2023/07/16 18:01:17;;;;;;;2.83;1.73;;;;;;;;;;20912844;28;20479;-70
2023/07/16 18:11:18;;;;;;;2.90;2.13;;;;;;;;;;20912916;28;20486;-70
2023/07/16 18:21:19;;;;;;;2.03;1.75;;;;;;;;;;20923514;28;20430;-70
2023/07/16 18:31:21;;;;;;;3.13;2.20;;;;;;;;;;20928441;28;20143;-70
2023/07/16 18:41:22;;;;;;;7.72;2.05;;;;;;;;;;20926711;28;20049;-70
2023/07/16 18:51:23;;;;;;;3.85;2.00;;;;;;;;;;20925312;28;20062;-70
2023/07/16 19:01:24;;;;;;;4.22;1.85;;;;;;;;;;20924495;28;20052;-71
2023/07/16 19:11:26;;;;;;;3.25;2.10;;;;;;;;;;20923870;28;20140;-70
2023/07/16 19:21:28;;;;;;;2.78;2.05;;;;;;;;;;20924478;28;20056;-68
2023/07/16 19:31:29;;;;;;;7.88;2.42;;;;;;;;;;20923075;28;20517;-70
2023/07/16 19:41:30;;;;;;;3.45;2.47;;;;;;;;;;20923184;28;20109;-70
2023/07/16 19:51:31;;;;;;;2.58;2.08;;;;;;;;;;20922230;28;20041;-69
2023/07/16 20:01:33;;;;;;;3.90;2.60;;;;;;;;;;20921405;28;20439;-69
2023/07/16 20:11:34;;;;;;;3.97;2.20;;;;;;;;;;20919656;28;20048;-69
2023/07/16 20:21:35;;;;;;;4.40;2.50;;;;;;;;;;20920171;28;20068;-69
2023/07/16 20:31:37;;;;;;;7.25;2.20;;;;;;;;;;20917880;28;20132;-69
2023/07/16 20:41:38;;;;;;;4.80;3.25;;;;;;;;;;20916640;28;20049;-70
2023/07/16 20:51:39;;;;;;;5.63;3.22;;;;;;;;;;20917381;28;20504;-70
2023/07/16 21:01:41;;;;;;;5.07;2.95;;;;;;;;;;20915059;28;20048;-70
2023/07/16 21:11:42;;;;;;;4.53;3.10;;;;;;;;;;20915928;28;20545;-69
2023/07/16 21:21:44;;;;;;;5.32;3.40;;;;;;;;;;20914736;28;20134;-69
2023/07/16 21:31:45;;;;;;;3.75;2.75;;;;;;;;;;20913090;28;20049;-70
2023/07/16 21:41:46;;;;;;;7.50;2.92;;;;;;;;;;20913285;28;20045;-69
2023/07/16 21:51:47;;;;;;;4.85;3.47;;;;;;;;;;20913571;28;20532;-70
2023/07/16 22:01:48;;;;;;;7.20;3.13;;;;;;;;;;20911740;28;20106;-70
2023/07/16 22:11:50;;;;;;;3.65;2.45;;;;;;;;;;20913328;28;20054;-70
2023/07/16 22:21:52;;;;;;;4.80;2.60;;;;;;;;;;20911618;28;20127;-70
2023/07/16 22:31:53;;;;;;;6.15;2.58;;;;;;;;;;20912567;28;20490;-69
2023/07/16 22:41:54;;;;;;;8.05;5.45;;;;;;;;;;20912127;28;20518;-69
2023/07/16 22:51:56;;;;;;;9.70;5.55;;;;;;;;;;20911692;28;20502;-70
2023/07/16 23:01:57;;;;;;;8.63;4.18;;;;;;;;;;20911945;28;20115;-69
2023/07/16 23:11:58;;;;;;;7.88;6.25;;;;;;;;;;20925413;28;20080;-70
2023/07/16 23:21:59;;;;;;;5.72;3.38;;;;;;;;;;20924497;28;20053;-70
2023/07/16 23:32:00;;;;;;;5.15;3.53;;;;;;;;;;20922421;28;20041;-69
2023/07/16 23:42:01;;;;;;;7.18;2.33;;;;;;;;;;20921950;28;20048;-69
2023/07/16 23:52:02;;;;;;;3.67;2.40;;;;;;;;;;20923542;28;20041;-69
